createdAt,value
2023-02-26T00:01:29.498Z,5.72
2023-02-26T00:03:58.773Z,6.03
2023-02-26T00:06:27.252Z,6.28
2023-02-26T00:08:55.147Z,4.05
2023-02-26T00:11:22.646Z,5.25
2023-02-26T00:13:50.367Z,3.88
2023-02-26T00:16:33.890Z,5.10
2023-02-26T00:19:03.575Z,4.88
2023-02-26T00:21:31.329Z,4.82
2023-02-26T00:23:58.682Z,4.70
2023-02-26T00:26:26.786Z,3.50
2023-02-26T00:28:54.964Z,4.50
2023-02-26T00:31:25.818Z,3.47
2023-02-26T00:33:54.352Z,3.70
2023-02-26T00:36:41.364Z,3.42
2023-02-26T00:39:17.936Z,3.55
2023-02-26T00:41:45.570Z,4.07
2023-02-26T00:44:13.274Z,3.67
2023-02-26T00:46:43.761Z,4.90
2023-02-26T00:49:26.310Z,3.55
2023-02-26T00:52:01.979Z,4.28
2023-02-26T00:54:30.120Z,3.95
2023-02-26T00:56:58.301Z,3.78
2023-02-26T00:59:25.952Z,3.80
2023-02-26T01:01:53.369Z,3.15
2023-02-26T01:04:22.261Z,3.13
2023-02-26T01:06:54.655Z,3.20
2023-02-26T01:09:27.403Z,3.08
2023-02-26T01:11:55.798Z,2.45
2023-02-26T01:14:24.178Z,2.78
2023-02-26T01:17:03.013Z,3.33
2023-02-26T01:19:30.504Z,3.10
2023-02-26T01:22:10.127Z,3.30
2023-02-26T01:24:37.805Z,5.00
2023-02-26T01:27:06.023Z,5.85
2023-02-26T01:29:34.150Z,2.90
2023-02-26T01:32:23.780Z,3.85
2023-02-26T01:35:07.878Z,3.13
2023-02-26T01:38:05.529Z,3.20
2023-02-26T01:40:46.602Z,4.22
2023-02-26T01:43:18.512Z,8.10
2023-02-26T01:45:54.820Z,9.75
2023-02-26T01:48:44.380Z,8.63
2023-02-26T01:51:11.753Z,7.82
2023-02-26T01:53:39.245Z,8.02
2023-02-26T01:56:14.451Z,3.22
2023-02-26T01:58:41.773Z,5.63
2023-02-26T02:01:09.173Z,2.58
2023-02-26T02:03:39.195Z,2.60
2023-02-26T02:06:12.100Z,3.80
2023-02-26T02:08:39.446Z,3.15
2023-02-26T02:11:08.168Z,4.05
2023-02-26T02:14:21.685Z,2.83
2023-02-26T02:16:52.136Z,2.50
2023-02-26T02:19:47.470Z,2.60
2023-02-26T02:22:27.089Z,2.20
2023-02-26T02:25:16.356Z,2.38
2023-02-26T02:28:05.267Z,3.00
2023-02-26T02:30:56.177Z,2.20
2023-02-26T02:33:26.043Z,3.00
2023-02-26T02:35:56.687Z,2.33
2023-02-26T02:38:26.710Z,2.75
2023-02-26T02:40:59.168Z,3.47
2023-02-26T02:43:28.958Z,3.47
2023-02-26T02:46:10.619Z,2.75
2023-02-26T02:48:54.264Z,2.67
2023-02-26T02:51:48.046Z,2.50
2023-02-26T02:54:34.769Z,2.88
2023-02-26T02:57:12.488Z,2.90
2023-02-26T02:59:46.274Z,3.03
2023-02-26T03:02:21.632Z,2.70
2023-02-26T03:04:49.013Z,2.40
2023-02-26T03:07:16.312Z,2.70
2023-02-26T03:09:43.757Z,2.30
2023-02-26T03:12:12.444Z,2.47
2023-02-26T03:14:40.458Z,2.28
2023-02-26T03:17:20.829Z,2.30
2023-02-26T03:19:54.170Z,2.38
2023-02-26T03:22:39.402Z,2.50
2023-02-26T03:25:28.036Z,2.30
2023-02-26T03:28:43.705Z,2.25
2023-02-26T03:31:25.547Z,2.67
2023-02-26T03:34:20.396Z,2.80
2023-02-26T03:36:53.720Z,2.92
2023-02-26T03:39:47.447Z,2.55
2023-02-26T03:42:39.964Z,2.50
2023-02-26T03:45:34.481Z,2.55
2023-02-26T03:48:03.209Z,2.50
2023-02-26T03:51:05.035Z,2.55
2023-02-26T03:54:16.670Z,2.80
2023-02-26T03:56:47.877Z,2.40
2023-02-26T03:59:30.410Z,2.45
2023-02-26T04:02:08.311Z,2.67
2023-02-26T04:04:46.825Z,2.53
2023-02-26T04:07:15.050Z,2.80
2023-02-26T04:09:46.247Z,2.63
2023-02-26T04:12:13.827Z,2.95
2023-02-26T04:14:45.366Z,2.70
2023-02-26T04:17:12.668Z,2.50
2023-02-26T04:19:40.016Z,3.20
2023-02-26T04:22:07.488Z,2.97
2023-02-26T04:24:34.865Z,2.80
2023-02-26T04:27:03.222Z,2.67
2023-02-26T04:29:31.565Z,2.83
2023-02-26T04:31:59.429Z,2.70
2023-02-26T04:34:27.008Z,2.55
2023-02-26T04:36:54.312Z,3.28
2023-02-26T04:39:21.690Z,2.58
2023-02-26T04:41:49.057Z,2.42
2023-02-26T04:44:16.433Z,2.50
2023-02-26T04:46:43.780Z,2.53
2023-02-26T04:49:11.224Z,2.78
2023-02-26T04:51:43.601Z,2.65
2023-02-26T04:54:12.908Z,2.40
2023-02-26T04:56:40.236Z,2.33
2023-02-26T04:59:07.585Z,2.70
2023-02-26T05:01:35.909Z,2.63
2023-02-26T05:04:05.743Z,3.78
2023-02-26T05:06:33.199Z,2.25
2023-02-26T05:09:00.487Z,2.70
2023-02-26T05:11:27.837Z,2.67
2023-02-26T05:13:55.143Z,2.60
2023-02-26T05:16:22.569Z,2.50
2023-02-26T05:18:49.908Z,2.38
2023-02-26T05:21:18.752Z,2.20
2023-02-26T05:23:46.083Z,2.50
2023-02-26T05:26:13.398Z,2.35
2023-02-26T05:28:41.551Z,2.53
2023-02-26T05:31:09.097Z,2.63
2023-02-26T05:33:36.504Z,2.90
2023-02-26T05:36:04.101Z,2.72
2023-02-26T05:38:31.377Z,2.65
2023-02-26T05:40:58.799Z,3.00
2023-02-26T05:43:26.306Z,3.00
2023-02-26T05:45:53.981Z,2.25
2023-02-26T05:48:21.491Z,2.22
2023-02-26T05:50:49.429Z,3.00
2023-02-26T05:53:16.827Z,2.70
2023-02-26T05:55:44.209Z,2.83
2023-02-26T05:58:11.541Z,2.53
2023-02-26T06:00:38.937Z,2.72
2023-02-26T06:03:06.457Z,2.58
2023-02-26T06:05:34.046Z,2.97
2023-02-26T06:08:01.387Z,2.88
2023-02-26T06:10:28.663Z,2.65
2023-02-26T06:12:56.001Z,2.45
2023-02-26T06:15:23.371Z,2.53
2023-02-26T06:17:50.734Z,2.60
2023-02-26T06:20:18.153Z,2.95
2023-02-26T06:22:45.446Z,2.83
2023-02-26T06:25:12.830Z,3.28
2023-02-26T06:27:40.128Z,2.90
2023-02-26T06:30:07.912Z,2.92
2023-02-26T06:32:35.287Z,2.80
2023-02-26T06:35:02.648Z,3.05
2023-02-26T06:37:29.992Z,2.63
2023-02-26T06:39:57.325Z,3.40
2023-02-26T06:42:24.621Z,2.90
2023-02-26T06:44:51.899Z,2.60
2023-02-26T06:47:19.259Z,3.10
2023-02-26T06:49:46.560Z,2.95
2023-02-26T06:52:13.924Z,2.75
2023-02-26T06:54:41.264Z,2.60
2023-02-26T06:57:08.602Z,3.10
2023-02-26T06:59:35.981Z,2.65
2023-02-26T07:02:03.401Z,2.90
2023-02-26T07:04:30.820Z,2.83
2023-02-26T07:06:58.104Z,2.53
2023-02-26T07:09:25.418Z,4.43
2023-02-26T07:11:52.717Z,2.60
2023-02-26T07:14:20.224Z,2.75
2023-02-26T07:16:47.542Z,2.70
2023-02-26T07:19:14.921Z,2.83
2023-02-26T07:21:42.280Z,2.80
2023-02-26T07:24:09.597Z,3.00
2023-02-26T07:26:36.871Z,3.30
2023-02-26T07:29:04.244Z,2.80
2023-02-26T07:31:31.698Z,2.80
2023-02-26T07:33:59.019Z,3.25
2023-02-26T07:36:26.811Z,2.90
2023-02-26T07:38:54.314Z,2.97
2023-02-26T07:41:21.631Z,3.10
2023-02-26T07:43:48.965Z,3.45
2023-02-26T07:46:16.285Z,3.25
2023-02-26T07:48:43.672Z,3.55
2023-02-26T07:51:11.208Z,3.38
2023-02-26T07:53:38.537Z,3.13
2023-02-26T07:56:05.897Z,3.60
2023-02-26T07:58:33.365Z,3.38
2023-02-26T08:01:00.692Z,3.58
2023-02-26T08:03:27.995Z,3.28
2023-02-26T08:05:55.344Z,3.25
2023-02-26T08:08:22.618Z,3.25
2023-02-26T08:10:49.934Z,3.22
2023-02-26T08:13:17.295Z,3.10
2023-02-26T08:15:44.661Z,3.50
2023-02-26T08:18:12.305Z,3.60
2023-02-26T08:20:39.708Z,3.50
2023-02-26T08:23:07.042Z,3.45
2023-02-26T08:25:34.341Z,3.15
2023-02-26T08:28:03.248Z,3.25
2023-02-26T08:30:30.736Z,3.60
2023-02-26T08:32:58.032Z,3.25
2023-02-26T08:35:25.347Z,3.72
2023-02-26T08:37:52.846Z,4.15
2023-02-26T08:40:20.425Z,3.40
2023-02-26T08:42:48.026Z,3.00
2023-02-26T08:45:15.420Z,4.07
2023-02-26T08:47:55.641Z,4.05
2023-02-26T08:50:25.428Z,4.03
2023-02-26T08:52:52.919Z,3.97
2023-02-26T08:55:20.605Z,3.83
2023-02-26T08:57:47.949Z,3.65
2023-02-26T09:00:19.317Z,4.30
2023-02-26T09:02:46.846Z,4.22
2023-02-26T09:05:15.008Z,3.90
2023-02-26T09:07:42.779Z,3.67
2023-02-26T09:10:10.906Z,3.85
2023-02-26T09:12:38.258Z,4.03
2023-02-26T09:15:06.589Z,4.63
2023-02-26T09:17:34.182Z,4.03
2023-02-26T09:20:01.518Z,4.22
2023-02-26T09:22:28.824Z,4.40
2023-02-26T09:24:56.175Z,4.47
2023-02-26T09:27:23.553Z,5.30
2023-02-26T09:29:51.138Z,5.03
2023-02-26T09:32:18.573Z,5.43
2023-02-26T09:34:45.973Z,5.68
2023-02-26T09:37:13.342Z,5.40
2023-02-26T09:39:40.673Z,5.43
2023-02-26T09:42:33.798Z,5.45
2023-02-26T09:45:01.122Z,4.78
2023-02-26T09:47:39.371Z,4.97
2023-02-26T09:50:16.407Z,4.80
2023-02-26T09:52:45.303Z,5.10
2023-02-26T09:55:22.067Z,5.50
2023-02-26T09:57:49.511Z,5.97
2023-02-26T10:00:23.654Z,5.43
2023-02-26T10:03:06.213Z,5.47
2023-02-26T10:05:59.529Z,5.63
2023-02-26T10:08:30.455Z,5.38
2023-02-26T10:11:16.412Z,5.50
2023-02-26T10:13:58.110Z,5.50
2023-02-26T10:16:28.550Z,5.32
2023-02-26T10:19:01.218Z,6.07
2023-02-26T10:21:37.026Z,5.38
2023-02-26T10:24:24.254Z,5.20
2023-02-26T10:27:05.556Z,5.07
2023-02-26T10:29:55.001Z,5.00
2023-02-26T10:32:37.106Z,5.45
2023-02-26T10:35:26.078Z,5.07
2023-02-26T10:38:02.958Z,4.25
2023-02-26T10:40:35.017Z,5.15
2023-02-26T10:43:32.126Z,5.20
2023-02-26T10:46:13.313Z,4.88
2023-02-26T10:48:59.764Z,4.70
2023-02-26T10:51:32.398Z,4.30
2023-02-26T10:54:32.252Z,5.55
2023-02-26T10:56:59.543Z,4.40
2023-02-26T10:59:27.099Z,4.70
2023-02-26T11:01:54.416Z,4.60
2023-02-26T11:04:23.528Z,5.20
2023-02-26T11:06:58.929Z,4.70
2023-02-26T11:09:33.467Z,5.15
2023-02-26T11:12:12.874Z,5.43
2023-02-26T11:14:40.804Z,4.70
2023-02-26T11:17:15.212Z,4.38
2023-02-26T11:19:53.579Z,4.80
2023-02-26T11:22:20.976Z,5.10
2023-02-26T11:24:48.930Z,5.05
2023-02-26T11:27:40.741Z,5.15
2023-02-26T11:30:19.259Z,5.00
2023-02-26T11:32:50.196Z,4.93
2023-02-26T11:35:18.074Z,5.55
2023-02-26T11:37:49.931Z,4.97
2023-02-26T11:40:27.842Z,5.20
2023-02-26T11:43:05.507Z,5.50
2023-02-26T11:45:37.235Z,5.95
2023-02-26T11:48:10.581Z,5.45
2023-02-26T11:50:46.442Z,4.47
2023-02-26T11:53:24.360Z,6.15
2023-02-26T11:56:00.872Z,5.25
2023-02-26T11:58:30.394Z,4.57
2023-02-26T12:00:59.520Z,5.13
2023-02-26T12:03:30.974Z,4.85
2023-02-26T12:05:59.187Z,5.05
2023-02-26T12:08:38.589Z,4.32
2023-02-26T12:11:30.437Z,4.53
2023-02-26T12:14:07.561Z,5.05
2023-02-26T12:17:01.053Z,5.07
2023-02-26T12:19:42.592Z,4.70
2023-02-26T12:22:14.413Z,3.88
2023-02-26T12:25:04.375Z,3.90
2023-02-26T12:28:05.590Z,3.58
2023-02-26T12:30:51.400Z,3.28
2023-02-26T12:33:31.297Z,4.68
2023-02-26T12:36:16.926Z,4.35
2023-02-26T12:39:04.767Z,4.10
2023-02-26T12:41:52.284Z,3.60
2023-02-26T12:44:41.426Z,3.65
2023-02-26T12:47:17.523Z,3.88
2023-02-26T12:49:51.483Z,3.80
2023-02-26T12:52:37.232Z,3.67
2023-02-26T12:55:33.368Z,3.92
2023-02-26T12:58:20.928Z,4.00
2023-02-26T13:01:08.985Z,3.78
2023-02-26T13:04:04.148Z,3.63
2023-02-26T13:07:10.606Z,3.50
2023-02-26T13:09:50.721Z,3.65
2023-02-26T13:12:17.996Z,2.60
2023-02-26T13:14:51.092Z,4.07
2023-02-26T13:17:29.922Z,4.13
2023-02-26T13:20:11.284Z,4.60
2023-02-26T13:22:46.079Z,4.55
2023-02-26T13:25:41.964Z,3.58
2023-02-26T13:28:28.987Z,3.95
2023-02-26T13:30:56.353Z,4.40
2023-02-26T13:33:31.342Z,3.80
2023-02-26T13:35:58.765Z,3.95
2023-02-26T13:38:37.894Z,3.40
2023-02-26T13:41:16.679Z,4.05
2023-02-26T13:43:47.051Z,4.10
2023-02-26T13:46:28.226Z,3.60
2023-02-26T13:49:06.948Z,3.90
2023-02-26T13:51:42.571Z,4.00
2023-02-26T13:54:28.659Z,4.57
2023-02-26T13:57:29.806Z,4.72
2023-02-26T14:00:19.966Z,4.93
2023-02-26T14:02:57.635Z,4.68
2023-02-26T14:05:34.198Z,4.70
2023-02-26T14:08:01.497Z,4.78
2023-02-26T14:10:45.913Z,4.28
2023-02-26T14:13:21.344Z,4.03
2023-02-26T14:16:19.938Z,3.75
2023-02-26T14:18:47.229Z,3.25
2023-02-26T14:21:27.235Z,3.67
2023-02-26T14:24:01.683Z,4.25
2023-02-26T14:26:31.788Z,4.05
2023-02-26T14:29:36.765Z,4.00
2023-02-26T14:32:33.027Z,3.65
2023-02-26T14:35:10.349Z,4.65
2023-02-26T14:37:38.026Z,4.65
2023-02-26T14:40:15.942Z,3.95
2023-02-26T14:42:51.809Z,3.55
2023-02-26T14:45:30.837Z,3.70
2023-02-26T14:47:59.711Z,3.50
2023-02-26T14:51:01.939Z,3.40
2023-02-26T14:53:41.396Z,3.45
2023-02-26T14:56:46.113Z,3.35
2023-02-26T14:59:32.473Z,3.50
2023-02-26T15:02:18.832Z,3.20
2023-02-26T15:05:15.227Z,4.07
2023-02-26T15:07:59.633Z,3.75
2023-02-26T15:13:39.233Z,3.35
2023-02-26T15:16:32.406Z,3.40
2023-02-26T15:19:30.469Z,4.38
2023-02-26T15:22:00.895Z,4.43
2023-02-26T15:24:29.461Z,5.38
2023-02-26T15:27:00.175Z,4.05
2023-02-26T15:29:32.408Z,4.00
2023-02-26T15:32:05.757Z,3.72
2023-02-26T15:34:33.997Z,4.03
2023-02-26T15:37:01.398Z,4.03
2023-02-26T15:39:29.182Z,3.80
2023-02-26T15:41:57.439Z,4.80
2023-02-26T15:44:30.837Z,4.95
2023-02-26T15:47:01.407Z,4.43
2023-02-26T15:49:39.293Z,5.72
2023-02-26T15:52:08.041Z,5.03
2023-02-26T15:54:47.203Z,4.82
2023-02-26T15:57:15.010Z,5.93
2023-02-26T15:59:44.451Z,5.00
2023-02-26T16:02:16.058Z,3.70
2023-02-26T16:04:43.659Z,3.50
2023-02-26T16:07:11.960Z,5.28
2023-02-26T16:09:49.294Z,4.90
2023-02-26T16:12:18.942Z,4.90
2023-02-26T16:14:52.591Z,4.10
2023-02-26T16:17:28.462Z,5.38
2023-02-26T16:19:56.614Z,4.43
2023-02-26T16:22:42.086Z,4.25
2023-02-26T16:25:26.659Z,4.63
2023-02-26T16:28:24.668Z,7.70
2023-02-26T16:30:54.290Z,4.75
2023-02-26T16:33:23.864Z,4.07
2023-02-26T16:35:57.613Z,3.33
2023-02-26T16:38:30.988Z,2.47
2023-02-26T16:41:00.128Z,2.60
2023-02-26T16:43:50.313Z,3.00
2023-02-26T16:46:22.641Z,3.05
2023-02-26T16:49:17.117Z,3.30
2023-02-26T16:51:44.536Z,3.50
2023-02-26T16:54:41.296Z,3.47
2023-02-26T16:57:08.663Z,3.40
2023-02-26T16:59:36.936Z,3.80
2023-02-26T17:02:10.390Z,3.40
2023-02-26T17:04:37.742Z,3.38
2023-02-26T17:07:27.383Z,4.40
2023-02-26T17:10:00.023Z,4.68
2023-02-26T17:12:42.270Z,4.18
2023-02-26T17:15:19.071Z,4.70
2023-02-26T17:17:47.959Z,4.90
2023-02-26T17:20:15.560Z,4.40
2023-02-26T17:22:43.567Z,4.22
2023-02-26T17:25:18.029Z,6.18
2023-02-26T17:27:45.368Z,4.25
2023-02-26T17:30:16.164Z,4.60
2023-02-26T17:32:44.394Z,4.45
2023-02-26T17:35:15.985Z,3.80
2023-02-26T17:37:43.536Z,3.90
2023-02-26T17:40:38.119Z,3.55
2023-02-26T17:43:05.827Z,3.47
2023-02-26T17:45:33.531Z,3.60
2023-02-26T17:48:01.005Z,3.97
2023-02-26T17:50:30.076Z,4.90
2023-02-26T17:52:57.679Z,3.60
2023-02-26T17:55:25.031Z,4.25
2023-02-26T17:57:52.342Z,4.90
2023-02-26T18:00:19.991Z,5.63
2023-02-26T18:02:47.297Z,4.10
2023-02-26T18:05:14.692Z,4.10
2023-02-26T18:07:42.225Z,4.80
2023-02-26T18:10:15.887Z,4.60
2023-02-26T18:12:43.600Z,5.28
2023-02-26T18:15:11.599Z,5.00
2023-02-26T18:17:39.335Z,4.40
2023-02-26T18:20:09.747Z,4.97
2023-02-26T18:22:37.148Z,4.07
2023-02-26T18:25:04.738Z,4.10
2023-02-26T18:27:32.089Z,4.78
2023-02-26T18:30:01.291Z,4.80
2023-02-26T18:32:28.728Z,5.32
2023-02-26T18:34:56.110Z,4.55
2023-02-26T18:37:24.903Z,4.57
2023-02-26T18:39:52.374Z,6.85
2023-02-26T18:42:23.169Z,5.50
2023-02-26T18:44:50.647Z,5.78
2023-02-26T18:47:18.986Z,4.60
2023-02-26T18:49:47.047Z,5.13
2023-02-26T18:52:14.560Z,5.63
2023-02-26T18:54:42.083Z,4.40
2023-02-26T18:57:09.633Z,5.20
2023-02-26T18:59:37.064Z,5.32
2023-02-26T19:02:06.339Z,4.72
2023-02-26T19:04:33.860Z,4.78
2023-02-26T19:07:01.196Z,4.90
2023-02-26T19:09:28.791Z,5.20
2023-02-26T19:11:56.875Z,5.68
2023-02-26T19:14:24.543Z,5.10
2023-02-26T19:16:51.851Z,4.85
2023-02-26T19:19:19.269Z,5.97
2023-02-26T19:21:46.595Z,5.93
2023-02-26T19:24:14.059Z,5.30
2023-02-26T19:26:42.054Z,5.45
2023-02-26T19:29:11.442Z,5.57
2023-02-26T19:31:38.827Z,5.47
2023-02-26T19:34:06.299Z,6.60
2023-02-26T19:36:33.869Z,6.30
2023-02-26T19:39:02.286Z,6.20
2023-02-26T19:41:29.695Z,5.50
2023-02-26T19:43:57.047Z,6.20
2023-02-26T19:46:24.444Z,5.93
2023-02-26T19:48:51.773Z,5.95
2023-02-26T19:51:19.056Z,6.25
2023-02-26T19:53:46.446Z,6.38
2023-02-26T19:56:13.922Z,6.15
2023-02-26T19:58:41.811Z,6.13
2023-02-26T20:01:09.286Z,6.30
2023-02-26T20:03:36.720Z,5.80
2023-02-26T20:06:04.223Z,6.35
2023-02-26T20:08:32.224Z,6.20
2023-02-26T20:10:59.701Z,6.22
2023-02-26T20:13:30.251Z,6.15
2023-02-26T20:16:00.718Z,6.07
2023-02-26T20:18:29.777Z,6.70
2023-02-26T20:21:01.269Z,6.25
2023-02-26T20:23:28.667Z,6.18
2023-02-26T20:25:56.791Z,6.75
2023-02-26T20:28:24.789Z,6.35
2023-02-26T20:30:52.301Z,5.93
2023-02-26T20:33:21.062Z,6.43
2023-02-26T20:35:48.967Z,6.40
2023-02-26T20:38:17.193Z,5.93
2023-02-26T20:40:44.748Z,6.18
2023-02-26T20:43:12.229Z,6.47
2023-02-26T20:45:39.751Z,6.57
2023-02-26T20:48:07.435Z,6.35
2023-02-26T20:50:36.154Z,6.43
2023-02-26T20:53:06.838Z,6.25
2023-02-26T20:55:34.538Z,6.22
2023-02-26T20:58:02.111Z,6.65
2023-02-26T21:00:29.612Z,7.22
2023-02-26T21:02:56.956Z,6.30
2023-02-26T21:05:24.485Z,6.82
2023-02-26T21:07:51.931Z,6.80
2023-02-26T21:10:19.531Z,6.10
2023-02-26T21:12:46.880Z,6.47
2023-02-26T21:15:14.336Z,6.50
2023-02-26T21:17:42.891Z,6.85
2023-02-26T21:20:12.068Z,6.80
2023-02-26T21:22:39.565Z,6.70
2023-02-26T21:25:07.502Z,6.85
2023-02-26T21:27:35.121Z,6.88
2023-02-26T21:30:03.827Z,6.30
2023-02-26T21:32:31.655Z,6.22
2023-02-26T21:34:59.259Z,6.13
2023-02-26T21:37:26.965Z,5.82
2023-02-26T21:39:54.351Z,5.95
2023-02-26T21:42:22.500Z,7.00
2023-02-26T21:44:49.849Z,6.07
2023-02-26T21:47:17.203Z,6.72
2023-02-26T21:49:44.610Z,6.20
2023-02-26T21:52:12.071Z,6.80
2023-02-26T21:54:39.514Z,6.25
2023-02-26T21:57:06.928Z,6.20
2023-02-26T21:59:34.340Z,5.78
2023-02-26T22:02:01.692Z,6.45
2023-02-26T22:04:29.328Z,5.80
2023-02-26T22:06:56.752Z,5.65
2023-02-26T22:09:24.149Z,6.28
2023-02-26T22:11:51.419Z,6.15
2023-02-26T22:14:18.758Z,6.90
2023-02-26T22:16:46.095Z,6.13
2023-02-26T22:19:13.429Z,5.68
2023-02-26T22:21:40.787Z,5.68
2023-02-26T22:24:08.566Z,5.90
2023-02-26T22:26:35.931Z,7.68
2023-02-26T22:29:03.741Z,5.95
2023-02-26T22:31:34.208Z,6.35
2023-02-26T22:34:02.700Z,5.85
2023-02-26T22:36:31.394Z,6.22
2023-02-26T22:38:58.870Z,5.82
2023-02-26T22:41:26.283Z,5.50
2023-02-26T22:43:54.109Z,5.28
2023-02-26T22:46:24.275Z,5.22
2023-02-26T22:48:51.810Z,6.70
2023-02-26T22:51:19.156Z,6.30
2023-02-26T22:53:46.451Z,5.90
2023-02-26T22:56:13.978Z,5.60
2023-02-26T22:58:41.407Z,5.78
2023-02-26T23:01:09.182Z,5.75
2023-02-26T23:03:36.501Z,5.25
2023-02-26T23:06:04.082Z,5.50
2023-02-26T23:08:31.452Z,5.65
2023-02-26T23:10:59.633Z,6.00
2023-02-26T23:13:27.344Z,4.93
2023-02-26T23:15:54.720Z,5.45
2023-02-26T23:18:22.076Z,5.63
2023-02-26T23:20:49.421Z,5.90
2023-02-26T23:23:16.764Z,5.28
2023-02-26T23:25:44.030Z,5.75
2023-02-26T23:28:11.829Z,5.30
2023-02-26T23:30:39.418Z,5.35
2023-02-26T23:33:07.320Z,5.45
2023-02-26T23:35:35.205Z,5.10
2023-02-26T23:38:02.970Z,5.13
2023-02-26T23:40:30.991Z,5.40
2023-02-26T23:42:58.338Z,5.15
2023-02-26T23:45:25.853Z,5.30
2023-02-26T23:47:53.221Z,5.18
2023-02-26T23:50:20.894Z,4.93
2023-02-26T23:52:48.221Z,5.80
2023-02-26T23:55:15.533Z,5.40
2023-02-26T23:57:43.961Z,5.00
